Laura, IL (61451)

8:17 AM CDT on May 06, 2015 (GMT -0500)
2 mi SSE of Laura, IL - 3.5 mi NNW of Brimfield, IL | | Change Station
CLOSE
Current Station
Personal Weather Station
Location: Brimfield, IL
Elevation: 722 ft
Nearby Weather Stations

Elev 722 ft 40.89 °N, 89.91 °W | Updated 2 minutes ago

Fog
Fog
62.6 °F
Feels Like 62.6 °F
N
4.0
Wind Variable Wind from ESE
Gusts 6.3 mph

Today
High -- | Low -- °F
--% Chance of Precip.
Yesterday
High -- | Low -- °F
Precip. -- in
5:52 AM 8:01 PM
Waning Gibbous, 94% visible
Pressure 30.14 in
Visibility 3.0 miles
Clouds Mostly Cloudy 9500 ft
Mostly Cloudy 12000 ft
Dew Point 60 °F
Humidity 90%
Rainfall 0.00 in
Snow Depth Not available.
UV 1 out of 12
Pollen 10.70 out of 12
Air Quality Not available.
Flu Activity Local Activity
METAR KPIA 061254Z 09003KT 3SM HZ BKN095 BKN120 18/15 A3015 RMK AO2 SLP205 T01780150

More Conditions Fewer Conditions

Pressure 30.14 in
Visibility 3.0 miles
Clouds Mostly Cloudy 9500 ft
Mostly Cloudy 12000 ft
Dew Point 60 °F
Humidity 90%
Rainfall 0.00 in
Snow Depth Not available.
UV 1 out of 12
Pollen 10.70 out of 12
Air Quality Not available.
Flu Activity Local Activity
METAR KPIA 061254Z 09003KT 3SM HZ BKN095 BKN120 18/15 A3015 RMK AO2 SLP205 T01780150

More Conditions Fewer Conditions

10-Day Weather Forecast

Almanac

Astronomy

May. 06, 2015 Rise Set
Actual Time
Civil Twilight
Nautical Twilight
Astronomical Twilight
Moon
Length of Visible Light
Length of Day
Tomorrow will be .
, % of the Moon is Illuminated

Today's Extremes

State Highs State Lows

Community

WunderPhotos

Upload Photos

1,818,894 photos uploaded!

WunderBlogs® & News

Nearby

Air Quality

  Air Quality AQ Index Pollutant
Not available.

Snow Depth

Station Depth Elevation

Earthquake Activity

City Distance Mag. Time & Date
Minimum magnitude displayed is 2.5.

Coastal Water Temperatures

Place Temperature

Stations

Nearby Weather Stations

Station Location Temp. Windchill Dew Point Humidity Wind Precip. Elev Updated Type